Latest Weather Observations for Cape Borda

IDS60801

Issued at 3:31 pm CST Tuesday 20 April 2021 (issued every 10 minutes, with the page automatically refreshed every 10 minutes)

About weather observations | Map of weather stations | Latest weather observations for SA | Other Formats
Station Details ID: 022823 Name: CAPE BORDA Lat: -35.75 Lon: 136.60 Height: 158.0 m
Data from the previous 72 hours. | See also: Recent months at Cape Borda
Date/Time
CST
Temp
°C
App
Temp
°C
Dew
Point
°C
Rel
Hum
%
Delta-T
°C
Wind Press
QNH
hPa
Press
MSL
hPa
Rain since
9am
mm
Dir  Spd
km/h
Gust
km/h
Spd
kts
Gust
kts
20/03:30pm 13.4 8.5 5.1 57 3.9 SSE 20 30 11 16 1018.7 1018.4 0.0
20/03:00pm 14.0 8.5 6.1 59 3.8 SSE 24 32 13 17 1018.3 1018.0 0.0
20/02:30pm 14.8 10.1 6.1 56 4.2 S 20 30 11 16 1017.9 1017.7 0.0
20/02:00pm 14.2 9.2 6.3 59 3.8 SSE 22 32 12 17 1017.8 1017.6 0.0
20/01:30pm 14.8 8.4 6.9 59 3.9 SSE 30 39 16 21 1017.8 1017.6 0.0
20/01:00pm 14.3 8.6 6.6 60 3.8 S 26 35 14 19 1017.8 1017.6 0.0
20/12:30pm 14.4 8.6 7.9 65 3.3 S 28 41 15 22 1018.2 1017.9 0.0
20/12:00pm 14.5 8.0 8.2 66 3.2 S 32 44 17 24 1018.3 1018.0 0.0
20/11:30am 13.9 7.2 8.1 68 2.9 S 33 43 18 23 1018.2 1017.9 0.0
20/11:00am 14.7 8.4 8.9 68 3.0 S 32 44 17 24 1017.7 1017.5 0.0
20/10:44am 14.3 7.7 8.5 68 2.9 S 33 52 18 28 1017.4 1017.2 0.0
20/10:30am 14.3 8.5 8.0 66 3.2 SSW 28 43 15 23 1017.2 1017.0 0.0
20/10:00am 13.8 7.5 9.0 73 2.5 SSE 32 43 17 23 1016.9 1016.7 0.0
20/09:48am 13.7 7.7 10.1 79 1.9 SSE 32 50 17 27 1016.8 1016.6 0.0
20/09:30am 13.6 8.4 10.4 81 1.7 S 28 41 15 22 1016.9 1016.7 0.0
20/09:00am 13.8 9.0 10.2 79 1.9 S 26 39 14 21 1016.5 1016.3 6.0
20/08:30am 12.8 7.6 10.2 84 1.4 S 28 43 15 23 1016.1 1015.9 6.0
20/08:00am 11.7 6.8 11.2 97 0.3 SSE 28 37 15 20 1015.4 1015.2 6.0
20/07:30am 11.3 5.6 11.3 100 0.0 SSE 32 44 17 24 1014.7 1014.4 6.0
20/07:00am 11.5 5.9 11.5 100 0.0 S 32 41 17 22 1014.0 1013.7 6.0
20/06:30am 11.6 5.8 11.6 100 0.0 SSE 33 48 18 26 1013.5 1013.2 6.0
20/06:00am 12.1 6.7 12.1 100 0.0 S 32 52 17 28 1013.2 1012.9 6.0
20/05:59am 12.1 6.7 12.1 100 0.0 S 32 52 17 28 1013.2 1012.9 6.0
20/05:30am 12.5 6.3 12.5 100 0.0 S 37 48 20 26 1012.9 1012.6 5.8
20/05:07am 13.0 6.9 13.0 100 0.0 S 37 50 20 27 1012.5 1012.2 5.6
20/05:00am 13.7 9.1 13.5 99 0.1 SSW 30 50 16 27 1012.4 1012.1 5.2
20/04:59am 13.9 9.7 13.6 98 0.2 SW 28 48 15 26 1012.5 1012.2 5.2
20/04:55am 14.4 10.9 14.4 100 0.0 SW 26 37 14 20 1012.4 1012.1 4.6
20/04:34am 14.7 8.3 14.2 97 0.3 WSW 41 59 22 32 1012.2 1011.9 4.2
20/04:30am 14.6 8.3 13.6 94 0.6 WSW 39 56 21 30 1012.2 1011.9 4.0
20/04:23am 16.3 11.2 13.8 85 1.4 W 33 52 18 28 1012.0 1011.7 2.6
20/04:00am 16.3 11.7 13.4 83 1.6 WNW 30 43 16 23 1011.9 1011.6 2.6
20/03:30am 15.7 12.0 13.9 89 1.0 WNW 26 37 14 20 1012.3 1012.0 2.6
20/03:00am 15.4 11.8 14.1 92 0.7 WNW 26 43 14 23 1012.5 1012.2 2.6
20/02:30am 16.0 11.5 13.8 87 1.3 NW 30 43 16 23 1012.6 1012.3 1.8
20/02:00am 15.8 11.3 13.8 88 1.1 NW 30 39 16 21 1012.9 1012.6 1.8
20/01:30am 15.7 11.1 13.5 87 1.2 NW 30 37 16 20 1013.2 1012.9 1.8
20/01:00am 15.7 11.6 13.7 88 1.1 NW 28 39 15 21 1013.4 1013.1 1.8
20/12:30am 15.8 11.2 13.6 87 1.2 NW 30 43 16 23 1013.4 1013.1 1.8
20/12:00am 15.8 11.2 13.5 86 1.3 NW 30 41 16 22 1013.6 1013.3 1.8
 
Date/Time
CST
Temp
°C
App
Temp
°C
Dew
Point
°C
Rel
Hum
%
Delta-T
°C
Wind Press
QNH
hPa
Press
MSL
hPa
Rain since
9am
mm
Dir  Spd
km/h
Gust
km/h
Spd
kts
Gust
kts
19/11:30pm 15.4 10.6 13.9 91 0.9 WNW 32 48 17 26 1013.8 1013.5 1.8
19/11:26pm 15.5 11.6 14.4 93 0.6 WNW 28 48 15 26 1013.8 1013.5 1.8
19/11:00pm 16.3 11.9 13.0 81 1.8 NW 28 37 15 20 1013.9 1013.6 1.2
19/10:30pm 15.9 11.5 12.8 82 1.7 NW 28 39 15 21 1014.1 1013.8 1.2
19/10:00pm 16.3 12.2 11.5 73 2.6 WNW 24 37 13 20 1014.3 1014.0 1.2
19/09:30pm 16.4 11.5 11.3 72 2.8 NW 28 39 15 21 1014.4 1014.1 1.2
19/09:00pm 16.1 11.2 11.3 73 2.6 NW 28 35 15 19 1014.5 1014.2 1.2
19/08:30pm 16.1 12.4 11.5 74 2.5 WNW 22 32 12 17 1014.7 1014.4 1.2
19/08:00pm 16.6 10.9 8.3 58 4.3 WNW 28 37 15 20 1014.9 1014.7 1.2
19/07:30pm 16.5 12.3 11.0 70 3.0 WNW 24 33 13 18 1015.0 1014.8 1.2
19/07:00pm 16.5 11.7 10.4 67 3.3 W 26 35 14 19 1015.0 1014.8 1.2
19/06:30pm 16.5 11.6 11.2 71 2.9 W 28 39 15 21 1014.9 1014.7 1.2
19/06:00pm 16.6 11.2 10.9 69 3.1 WNW 30 41 16 22 1014.7 1014.4 1.2
19/05:30pm 16.0 12.9 13.3 84 1.5 W 22 39 12 21 1014.7 1014.4 1.2
19/05:00pm 16.2 12.7 13.3 83 1.6 W 24 33 13 18 1014.6 1014.3 1.2
19/04:30pm 16.4 12.0 12.8 79 2.0 WNW 28 39 15 21 1014.8 1014.6 1.2
19/04:00pm 16.8 12.1 13.3 80 2.0 NW 30 41 16 22 1014.7 1014.4 1.2
19/03:30pm 16.9 12.7 14.7 87 1.3 NW 30 37 16 20 1014.8 1014.6 1.2
19/03:00pm 17.2 13.3 14.3 83 1.7 NW 28 41 15 22 1015.0 1014.8 1.2
19/02:30pm 17.5 13.4 15.0 85 1.5 NW 30 43 16 23 1015.1 1014.9 1.2
19/02:00pm 17.6 13.0 14.7 83 1.7 NW 32 43 17 23 1015.4 1015.2 1.2
19/01:30pm 17.3 12.6 14.4 83 1.7 NW 32 41 17 22 1015.6 1015.4 1.2
19/01:00pm 17.4 12.8 14.7 84 1.6 NW 32 43 17 23 1016.2 1016.0 1.2
19/12:30pm 16.1 11.8 14.3 89 1.0 NW 30 44 16 24 1016.8 1016.6 1.2
19/12:00pm 16.1 12.2 14.5 90 0.9 NW 28 39 15 21 1017.1 1016.9 1.2
19/11:30am 15.7 10.3 13.9 89 1.0 NW 35 46 19 25 1017.4 1017.2 1.2
19/11:00am 17.0 13.4 14.3 84 1.6 NW 26 37 14 20 1017.6 1017.4 0.0
19/10:30am 16.8 13.0 13.5 81 1.9 NW 26 39 14 21 1017.9 1017.7 0.0
19/10:00am 16.6 12.6 14.1 85 1.4 NW 28 37 15 20 1018.2 1017.9 0.0
19/09:30am 16.1 11.6 13.9 87 1.2 NW 30 35 16 19 1018.6 1018.3 0.0
19/09:00am 14.5 11.2 12.9 90 0.9 NW 22 32 12 17 1018.8 1018.5 0.0
19/08:30am 14.0 8.3 13.1 94 0.5 WNW 35 44 19 24 1018.8 1018.5 0.0
19/08:00am 14.7 11.9 13.2 91 0.8 NW 20 30 11 16 1018.5 1018.2 0.0
19/07:30am 14.9 11.6 12.9 88 1.1 NW 22 32 12 17 1018.5 1018.2 0.0
19/07:00am 15.6 11.8 11.0 74 2.5 NW 22 33 12 18 1018.3 1018.0 0.0
19/06:30am 15.1 12.1 12.6 85 1.4 NNW 20 28 11 15 1018.3 1018.0 0.0
19/06:00am 15.7 13.0 13.0 84 1.5 NW 19 26 10 14 1018.4 1018.1 0.0
19/05:30am 15.3 13.1 12.2 82 1.7 WNW 15 20 8 11 1018.5 1018.2 0.0
19/05:00am 15.6 12.7 12.2 80 1.9 WNW 19 26 10 14 1018.4 1018.1 0.0
19/04:30am 15.4 12.7 11.6 78 2.1 WNW 17 24 9 13 1018.6 1018.3 0.0
19/04:00am 15.6 12.6 12.0 79 2.0 WNW 19 28 10 15 1019.0 1018.7 0.0
19/03:30am 15.7 12.3 11.1 74 2.5 WNW 20 26 11 14 1019.1 1018.8 0.0
19/03:00am 15.7 12.9 11.5 76 2.3 W 17 22 9 12 1019.4 1019.1 0.0
19/02:30am 15.8 12.5 11.0 73 2.6 W 19 26 10 14 1019.9 1019.6 0.0
19/02:00am 15.4 13.8 11.6 78 2.1 WNW 11 15 6 8 1020.1 1019.8 0.0
19/01:30am 15.2 13.7 12.0 81 1.7 NW 11 15 6 8 1020.4 1020.2 0.0
19/01:00am 15.2 13.5 12.5 84 1.5 NW 13 17 7 9 1020.7 1020.5 0.0
19/12:30am 15.2 12.7 12.3 83 1.6 WNW 17 20 9 11 1020.9 1020.7 0.0
19/12:00am 15.0 13.0 12.7 86 1.3 WNW 15 19 8 10 1021.3 1021.1 0.0
 
Date/Time
CST
Temp
°C
App
Temp
°C
Dew
Point
°C
Rel
Hum
%
Delta-T
°C
Wind Press
QNH
hPa
Press
MSL
hPa
Rain since
9am
mm
Dir  Spd
km/h
Gust
km/h
Spd
kts
Gust
kts
18/11:30pm 14.2 13.2 12.2 88 1.1 W 9 13 5 7 1021.7 1021.5 0.0
18/11:00pm 13.9 13.2 11.9 88 1.1 WSW 7 9 4 5 1022.0 1021.8 0.0
18/10:30pm 13.7 13.2 12.1 90 0.9 WSW 6 7 3 4 1022.4 1022.2 0.0
18/10:00pm 14.1 12.0 12.3 89 1.0 WSW 15 24 8 13 1022.6 1022.4 0.0
18/09:30pm 14.5 11.5 12.0 85 1.4 WSW 19 24 10 13 1022.7 1022.5 0.0
18/09:00pm 15.2 12.4 12.7 85 1.4 WSW 19 28 10 15 1022.7 1022.5 0.0
18/08:30pm 14.8 12.4 12.5 86 1.3 WSW 17 20 9 11 1022.6 1022.4 0.0
18/08:00pm 14.5 13.0 13.2 92 0.7 SSW 13 19 7 10 1022.8 1022.6 0.0
18/07:30pm 15.4 12.5 12.9 85 1.4 WSW 20 30 11 16 1022.9 1022.7 0.0
18/07:00pm 15.2 12.3 12.2 82 1.6 W 19 24 10 13 1023.0 1022.8 0.0
18/06:30pm 15.6 12.2 12.4 81 1.8 W 22 35 12 19 1023.0 1022.8 0.0
18/06:00pm 15.6 12.7 11.0 74 2.5 W 17 22 9 12 1022.9 1022.7 0.0
18/05:30pm 16.0 12.8 11.2 73 2.6 W 19 24 10 13 1023.0 1022.8 0.0
18/05:00pm 16.2 13.0 11.2 72 2.7 W 19 28 10 15 1023.1 1022.9 0.0
18/04:30pm 16.4 13.0 11.1 71 2.9 W 20 28 11 15 1023.1 1022.9 0.0
18/04:00pm 16.4 13.1 11.6 73 2.6 W 20 30 11 16 1023.3 1023.1 0.0
18/03:30pm 16.3 12.1 12.5 78 2.1 W 26 33 14 18 1023.5 1023.3 0.0
18/03:00pm 17.0 13.6 12.5 75 2.5 W 22 30 12 16 1023.6 1023.4 0.0
18/02:30pm 16.8 13.7 11.7 72 2.8 W 19 24 10 13 1023.5 1023.3 0.0
18/02:00pm 17.3 14.8 11.1 67 3.4 W 15 20 8 11 1023.8 1023.6 0.0
18/01:30pm 17.0 13.6 10.4 65 3.5 W 19 30 10 16 1024.2 1024.0 0.0
18/01:00pm 17.2 13.8 10.6 65 3.6 W 19 26 10 14 1024.7 1024.4 0.0
18/12:30pm 17.5 14.3 11.1 66 3.5 W 19 24 10 13 1025.0 1024.7 0.0
18/12:00pm 17.4 14.1 11.7 69 3.1 W 20 26 11 14 1025.3 1025.0 0.0
18/11:30am 17.3 13.4 9.5 60 4.1 W 20 28 11 15 1025.6 1025.4 0.0
18/11:00am 17.0 13.2 9.7 62 3.9 W 20 24 11 13 1025.7 1025.5 0.0
18/10:30am 17.2 14.2 10.6 65 3.5 W 17 24 9 13 1025.9 1025.7 0.0
18/10:00am 16.9 13.8 10.3 65 3.5 W 17 20 9 11 1026.2 1026.0 0.0
18/09:30am 16.8 14.3 9.7 63 3.7 W 13 20 7 11 1026.4 1026.2 0.0
18/09:00am 16.5 13.8 9.0 61 3.9 WNW 13 17 7 9 1026.6 1026.4 0.6
18/08:30am 16.8 14.4 8.5 58 4.3 W 11 15 6 8 1026.4 1026.2 0.6
18/08:00am 15.1 12.8 9.0 67 3.1 W 11 13 6 7 1026.2 1026.0 0.6
18/07:30am 14.9 13.8 10.1 73 2.5 NNW 6 7 3 4 1026.1 1025.9 0.6
18/07:00am 14.5 13.3 9.7 73 2.5 W 6 9 3 5 1026.0 1025.8 0.6
18/06:30am 14.2 13.1 9.8 75 2.3 WSW 6 9 3 5 1025.9 1025.7 0.6
18/06:00am 14.2 13.0 10.2 77 2.1 S 7 9 4 5 1025.9 1025.7 0.6
18/05:30am 14.1 12.3 10.7 80 1.8 SSE 11 13 6 7 1025.8 1025.6 0.6
18/05:00am 13.8 11.6 10.8 82 1.6 S 13 13 7 7 1025.7 1025.5 0.6
18/04:30am 13.6 11.4 10.8 83 1.5 S 13 15 7 8 1025.7 1025.5 0.6
18/04:00am 13.8 12.0 10.8 82 1.6 S 11 11 6 6 1025.8 1025.6 0.6
18/03:30am 13.7 11.9 10.9 83 1.5 S 11 13 6 7 1025.9 1025.7 0.6
18/03:00am 13.7 11.9 11.0 84 1.4 SSE 11 13 6 7 1026.1 1025.9 0.6
18/02:30am 14.0 11.8 10.8 81 1.7 S 13 17 7 9 1026.4 1026.2 0.6
18/02:00am 13.5 11.7 11.0 85 1.3 SSE 11 13 6 7 1026.7 1026.5 0.6
18/01:30am 13.9 12.2 11.1 83 1.5 S 11 13 6 7 1026.8 1026.6 0.6
18/01:00am 14.1 12.2 10.5 79 1.9 SSW 11 15 6 8 1026.8 1026.6 0.6
18/12:30am 14.7 12.5 10.7 77 2.1 SW 13 17 7 9 1026.9 1026.7 0.6
18/12:00am 14.9 12.4 11.1 78 2.0 SW 15 19 8 10 1027.0 1026.8 0.6
 
Date/Time
CST
Temp
°C
App
Temp
°C
Dew
Point
°C
Rel
Hum
%
Delta-T
°C
Wind Press
QNH
hPa
Press
MSL
hPa
Rain since
9am
mm
Dir  Spd
km/h
Gust
km/h
Spd
kts
Gust
kts
17/11:30pm 13.5 11.5 10.3 81 1.7 SSW 11 13 6 7 1027.2 1027.0 0.6
17/11:00pm 13.8 11.3 9.8 77 2.1 SW 13 17 7 9 1027.5 1027.3 0.6
17/10:30pm 14.0 12.3 11.3 84 1.4 SW 11 19 6 10 1027.7 1027.5 0.6
17/10:00pm 14.1 12.0 11.3 83 1.5 SW 13 20 7 11 1027.8 1027.6 0.6
17/09:30pm 14.7 13.0 12.4 86 1.3 SW 13 17 7 9 1027.9 1027.7 0.6
17/09:00pm 13.9 12.2 12.3 90 0.9 SW 13 17 7 9 1027.8 1027.6 0.6
17/08:30pm 14.0 13.2 12.9 93 0.6 W 9 13 5 7 1027.9 1027.7 0.6
17/08:00pm 14.5 13.7 13.0 91 0.8 W 9 13 5 7 1028.0 1027.8 0.6
17/07:30pm 14.5 13.0 11.8 84 1.5 SW 11 13 6 7 1028.0 1027.8 0.6
17/07:00pm 14.6 12.4 12.1 85 1.4 SW 15 17 8 9 1027.9 1027.7 0.6
17/06:30pm 13.9 12.4 13.0 94 0.5 WSW 13 17 7 9 1027.7 1027.5 0.6
17/06:00pm 13.9 12.1 13.3 96 0.3 WSW 15 22 8 12 1027.7 1027.5 0.4
17/05:30pm 14.9 13.3 12.9 88 1.1 WSW 13 17 7 9 1027.6 1027.4 0.2
17/05:00pm 15.0 13.8 12.9 87 1.2 SW 11 15 6 8 1027.4 1027.2 0.2
17/04:30pm 14.7 12.3 12.6 87 1.2 WSW 17 26 9 14 1027.5 1027.3 0.2
17/04:00pm 14.4 11.6 13.3 93 0.6 SW 20 32 11 17 1027.4 1027.2 0.0

Other formats

Comma delimited format used in spreadsheet applications
http://www.bom.gov.au/fwo/IDS60801/IDS60801.95805.axf

JavaScript Object Notation format (JSON) in row-major order
http://www.bom.gov.au/fwo/IDS60801/IDS60801.95805.json

Data quality

Most of these data are generated automatically and are frequently updated. Quality checks on data are not normally performed. It is possible for incorrect values to appear. Refer to information at About Latest Weather Observations and please check the disclaimer before using these data.